EGYD

RAF Cranwell Airport

Cranwell, United Kingdom
METAR EGYD 191450Z 26019KT 9999 FEW028 BKN200 05/M01 Q1005 BLU NOSIG
Observed Flight Rules
Jan-19 @ 14:50 UTC (42 minutes ago) Visual Flight Rules
Wind Visibility Clouds
260° at 19 knots 10,000+ meters
  • Few at 2,800' AGL
  • Broken at 20,000' AGL
Temperatures Readings
Current 5°C / 41°F
Dewpoint -1°C / 30°F
Humidity 66%
Altimeter 29.68" Hg
Pressure 1005 hPa
Elevation 67
METAR EGYD 191450Z 26019KT 9999 FEW028 BKN200 05/M01 Q1005 BLU NOSIG
Observed Flight Rules
Jan-19 @ 14:50 UTC
(42 minutes ago)
VFR
Wind Visibility
260° at 19 knots 10,000+ meters
Clouds
  • Few at 2,800' AGL
  • Broken at 20,000' AGL
Temperature Dewpoint
5°C / 41°F -1°C / 30°F
Humidity Altimeter Pressure
66% 29.68" Hg 1005 hPa